Time;durP1;ratioP1;P1;durP2;ratioP2;P2;SDS_P1;SDS_P2;PMS_P1;PMS_P2;Temp;Humidity;BMP_temperature;BMP_pressure;BME280_temperature;BME280_humidity;BME280_pressure;Samples;Min_cycle;Max_cycle;Signal;HPM_P1;HPM_P2
2022/11/17 00:02:21;;;;;;;11.23;4.40;;;;;;;8.97;100.00;98792.81;5049893;28;20031;-69
2022/11/17 00:04:46;;;;;;;12.55;4.13;;;;;;;8.96;100.00;98780.53;5050016;28;20028;-68
2022/11/17 00:07:12;;;;;;;6.75;3.35;;;;;;;8.88;100.00;98755.19;5049747;28;20538;-69
2022/11/17 00:09:37;;;;;;;9.90;4.50;;;;;;;8.96;100.00;98765.44;5049766;28;20037;-69
2022/11/17 00:14:46;;;;;;;15.30;4.68;;;;;;;8.99;100.00;98754.31;5049917;28;20048;-68
2022/11/17 00:17:12;;;;;;;12.63;5.65;;;;;;;8.95;100.00;98749.69;5048611;28;20024;-68
2022/11/17 00:22:22;;;;;;;10.93;4.28;;;;;;;8.99;100.00;98740.22;5049864;28;20178;-68
2022/11/17 00:24:48;;;;;;;9.27;4.03;;;;;;;8.96;100.00;98720.22;5049508;28;20021;-69
2022/11/17 00:27:14;;;;;;;10.10;4.28;;;;;;;8.95;100.00;98712.47;5049671;28;20029;-68
2022/11/17 00:29:39;;;;;;;10.02;3.70;;;;;;;9.00;100.00;98707.25;5049633;28;20825;-68
2022/11/17 00:34:54;;;;;;;7.65;3.60;;;;;;;8.99;100.00;98703.00;5048873;28;20047;-68
2022/11/17 00:37:19;;;;;;;7.78;3.88;;;;;;;9.00;100.00;98700.06;5048243;28;20036;-68
2022/11/17 00:39:44;;;;;;;6.10;3.22;;;;;;;9.01;100.00;98692.91;5049055;28;20032;-68
2022/11/17 00:42:10;;;;;;;8.40;3.30;;;;;;;9.02;100.00;98680.44;5049336;28;20112;-68
2022/11/17 00:44:35;;;;;;;7.50;3.85;;;;;;;8.96;100.00;98659.09;5049436;28;20449;-68
2022/11/17 00:47:00;;;;;;;7.90;3.45;;;;;;;9.02;100.00;98661.84;5048154;28;20056;-68
2022/11/17 00:49:26;;;;;;;7.57;3.70;;;;;;;9.03;100.00;98664.22;5049289;28;20097;-68
2022/11/17 00:51:52;;;;;;;9.55;4.80;;;;;;;9.03;100.00;98653.59;5051938;28;20049;-68
2022/11/17 00:54:18;;;;;;;6.97;3.40;;;;;;;9.03;100.00;98656.25;5053508;28;20021;-71
2022/11/17 00:56:44;;;;;;;7.47;2.88;;;;;;;9.04;100.00;98654.41;5053434;28;20043;-71
2022/11/17 00:59:09;;;;;;;8.07;3.60;;;;;;;9.02;100.00;98645.88;5053288;28;20025;-71
2022/11/17 01:01:35;;;;;;;8.20;3.38;;;;;;;9.05;100.00;98642.72;5053243;28;20139;-71
2022/11/17 01:04:01;;;;;;;10.32;4.82;;;;;;;9.03;100.00;98631.53;5053179;28;20078;-71
2022/11/17 01:06:35;;;;;;;8.65;3.42;;;;;;;9.02;100.00;98625.41;5053205;28;20473;-71
2022/11/17 01:09:03;;;;;;;8.38;3.90;;;;;;;9.07;100.00;98648.63;5053125;28;20033;-71
2022/11/17 01:11:28;;;;;;;6.00;3.50;;;;;;;9.05;100.00;98616.94;5053004;28;20033;-70
2022/11/17 01:13:56;;;;;;;8.93;3.78;;;;;;;9.08;100.00;98639.59;5053073;28;20388;-71
2022/11/17 01:16:22;;;;;;;8.82;3.00;;;;;;;9.07;100.00;98627.34;5052963;28;20025;-71
2022/11/17 01:18:50;;;;;;;6.25;3.22;;;;;;;9.06;100.00;98631.03;5053069;28;20043;-71
2022/11/17 01:21:20;;;;;;;7.07;4.10;;;;;;;9.08;100.00;98645.69;5052915;28;20047;-71
2022/11/17 01:23:48;;;;;;;6.97;3.70;;;;;;;9.08;100.00;98660.84;5051408;28;20067;-71
2022/11/17 01:26:16;;;;;;;10.82;4.13;;;;;;;9.09;100.00;98642.00;5052835;28;20032;-71
2022/11/17 01:28:41;;;;;;;7.07;3.40;;;;;;;9.08;100.00;98640.38;5052657;28;20044;-71
2022/11/17 01:31:10;;;;;;;6.32;3.58;;;;;;;9.06;100.00;98629.19;5052779;28;20029;-71
2022/11/17 01:33:36;;;;;;;6.47;3.30;;;;;;;9.10;100.00;98621.53;5052725;28;20510;-71
2022/11/17 01:36:07;;;;;;;6.50;4.22;;;;;;;9.09;100.00;98612.75;5052497;28;20032;-72
2022/11/17 01:38:33;;;;;;;5.60;3.33;;;;;;;9.10;100.00;98598.41;5051968;28;20383;-71
2022/11/17 01:41:00;;;;;;;6.82;2.92;;;;;;;9.09;100.00;98586.19;5052635;28;20025;-71
2022/11/17 01:43:39;;;;;;;6.00;3.45;;;;;;;9.14;100.00;98601.38;5052285;28;20132;-72
2022/11/17 01:46:13;;;;;;;4.82;3.28;;;;;;;9.14;100.00;98596.06;5052350;28;20056;-72
2022/11/17 01:48:40;;;;;;;8.25;3.05;;;;;;;9.18;100.00;98584.69;5051090;28;20104;-72
2022/11/17 01:51:05;;;;;;;6.80;3.15;;;;;;;9.18;100.00;98584.69;5052242;28;20033;-71
2022/11/17 01:53:33;;;;;;;4.80;2.97;;;;;;;9.18;100.00;98575.94;5052368;28;20131;-72
2022/11/17 01:56:04;;;;;;;6.78;3.38;;;;;;;9.18;100.00;98573.25;5052343;28;20589;-72
2022/11/17 01:58:34;;;;;;;5.47;2.85;;;;;;;9.18;100.00;98576.72;5050599;28;20040;-72
2022/11/17 02:00:59;;;;;;;6.90;3.40;;;;;;;9.18;100.00;98576.72;5050863;28;20357;-72
2022/11/17 02:03:26;;;;;;;4.68;2.78;;;;;;;9.21;100.00;98564.78;5051610;28;20040;-72
2022/11/17 02:06:05;;;;;;;4.07;2.40;;;;;;;9.23;100.00;98569.88;5052049;28;20029;-72
2022/11/17 02:08:32;;;;;;;4.43;3.40;;;;;;;9.23;100.00;98565.38;5051848;28;20059;-72
2022/11/17 02:11:01;;;;;;;5.60;2.65;;;;;;;9.24;100.00;98577.59;5051458;28;20025;-72
2022/11/17 02:13:27;;;;;;;3.38;2.72;;;;;;;9.27;100.00;98565.66;5034295;28;20484;-72
2022/11/17 02:15:52;;;;;;;6.15;2.58;;;;;;;9.29;100.00;98571.56;5052017;28;20032;-72
2022/11/17 02:18:18;;;;;;;4.93;2.65;;;;;;;9.26;100.00;98550.78;5051896;28;20037;-72
2022/11/17 02:20:54;;;;;;;4.20;2.40;;;;;;;9.29;100.00;98560.91;5050497;28;20029;-72
2022/11/17 02:23:41;;;;;;;6.25;2.13;;;;;;;9.28;100.00;98548.69;5051786;28;20036;-72
2022/11/17 02:26:15;;;;;;;3.08;1.83;;;;;;;9.26;100.00;98537.47;5051810;28;20025;-72
2022/11/17 02:29:08;;;;;;;4.80;2.03;;;;;;;9.29;100.00;98539.63;5051776;28;20025;-72
2022/11/17 02:31:44;;;;;;;3.47;2.10;;;;;;;9.32;100.00;98537.28;5051720;28;20069;-72
2022/11/17 02:34:34;;;;;;;2.65;1.88;;;;;;;9.34;100.00;98545.03;5051722;28;20476;-72
2022/11/17 02:37:16;;;;;;;2.10;1.55;;;;;;;9.33;100.00;98530.13;5051585;28;20054;-72
2022/11/17 02:39:58;;;;;;;2.08;1.52;;;;;;;9.29;100.00;98523.69;5051214;28;20037;-72
2022/11/17 02:45:20;;;;;;;2.78;1.90;;;;;;;9.31;100.00;98514.41;5051255;28;20382;-72
2022/11/17 02:47:49;;;;;;;2.80;1.58;;;;;;;9.34;100.00;98513.09;5051402;28;20067;-72
2022/11/17 02:50:18;;;;;;;1.85;1.40;;;;;;;9.35;100.00;98515.53;5051349;28;20964;-72
2022/11/17 02:52:43;;;;;;;1.48;1.38;;;;;;;9.41;100.00;98524.38;5051100;28;20114;-72
2022/11/17 02:55:10;;;;;;;3.15;1.65;;;;;;;9.39;100.00;98521.94;5051231;28;20037;-72
2022/11/17 02:57:38;;;;;;;2.58;1.80;;;;;;;9.36;100.00;98511.81;5051209;28;20044;-72
2022/11/17 03:00:06;;;;;;;4.93;1.88;;;;;;;9.39;100.00;98516.63;5051034;28;20028;-72
2022/11/17 03:02:40;;;;;;;3.42;2.28;;;;;;;9.39;100.00;98505.19;5051061;28;20171;-72
2022/11/17 03:05:24;;;;;;;2.15;1.80;;;;;;;9.41;100.00;98493.25;5050462;28;20025;-72
2022/11/17 03:08:04;;;;;;;2.45;1.73;;;;;;;9.43;100.00;98469.88;5050737;28;20029;-72
2022/11/17 03:10:48;;;;;;;2.55;1.60;;;;;;;9.42;100.00;98459.47;5050857;28;20090;-72
2022/11/17 03:13:32;;;;;;;3.08;1.63;;;;;;;9.39;100.00;98458.09;5049784;28;20024;-72
2022/11/17 03:16:12;;;;;;;3.17;1.10;;;;;;;9.39;100.00;98442.16;5050582;28;20068;-72
2022/11/17 03:18:43;;;;;;;2.10;1.27;;;;;;;9.39;100.00;98442.16;5050702;28;20032;-71
2022/11/17 03:21:15;;;;;;;1.80;1.23;;;;;;;9.40;100.00;98441.09;5050687;28;20083;-72
2022/11/17 03:23:59;;;;;;;1.63;1.52;;;;;;;9.43;100.00;98447.75;5050636;28;20037;-72
2022/11/17 03:26:38;;;;;;;3.28;1.05;;;;;;;9.47;100.00;98432.13;5050555;28;20024;-72
2022/11/17 03:29:07;;;;;;;1.20;0.90;;;;;;;9.46;100.00;98418.03;5050553;28;20546;-72
2022/11/17 03:31:34;;;;;;;0.90;0.90;;;;;;;9.50;100.00;98439.59;5050267;28;20024;-72
2022/11/17 03:34:02;;;;;;;1.48;1.13;;;;;;;9.53;100.00;98431.13;5050570;28;20051;-72
2022/11/17 03:36:35;;;;;;;2.33;1.08;;;;;;;9.52;100.00;98429.53;5050215;28;20036;-72
2022/11/17 03:39:10;;;;;;;3.55;1.13;;;;;;;9.52;100.00;98429.53;5048720;28;20041;-72
2022/11/17 03:41:41;;;;;;;1.55;0.70;;;;;;;9.54;100.00;98424.75;5050262;28;20035;-72
2022/11/17 03:44:06;;;;;;;3.17;1.37;;;;;;;9.55;100.00;98426.38;5050119;28;20106;-72
2022/11/17 03:46:35;;;;;;;1.38;0.90;;;;;;;9.54;100.00;98414.13;5050232;28;20080;-72
2022/11/17 03:49:19;;;;;;;1.42;1.33;;;;;;;9.57;100.00;98427.72;5050121;28;20107;-72
2022/11/17 03:51:44;;;;;;;0.70;0.70;;;;;;;9.53;100.00;98420.47;5050044;28;20053;-72
2022/11/17 03:54:10;;;;;;;2.28;1.20;;;;;;;9.51;100.00;98414.59;5050136;28;20474;-72
2022/11/17 03:57:00;;;;;;;1.85;1.17;;;;;;;9.52;100.00;98409.03;5049797;28;20395;-72
2022/11/17 03:59:46;;;;;;;1.83;1.48;;;;;;;9.52;100.00;98411.69;5049928;28;20032;-72
2022/11/17 04:02:23;;;;;;;1.75;1.20;;;;;;;9.47;100.00;98400.19;5048778;28;20059;-72
2022/11/17 04:05:04;;;;;;;1.20;1.00;;;;;;;9.44;100.00;98399.63;5049916;28;20031;-71
2022/11/17 04:07:35;;;;;;;3.53;1.58;;;;;;;9.48;100.00;98407.13;5032184;28;20029;-72
2022/11/17 04:10:02;;;;;;;1.20;1.10;;;;;;;9.43;100.00;98392.72;5049975;28;20037;-72
2022/11/17 04:17:55;;;;;;;3.13;1.33;;;;;;;9.60;100.00;98397.16;5050080;28;20075;-72
2022/11/17 04:20:21;;;;;;;1.77;1.02;;;;;;;9.62;100.00;98385.19;5049684;28;20068;-72
2022/11/17 04:23:05;;;;;;;1.25;1.10;;;;;;;9.58;100.00;98385.94;5049673;28;20025;-72
2022/11/17 04:28:38;;;;;;;1.20;0.95;;;;;;;9.63;100.00;98393.97;5048943;28;20392;-72
2022/11/17 04:31:06;;;;;;;1.35;1.13;;;;;;;9.64;100.00;98399.06;5049583;28;20032;-72
2022/11/17 04:33:32;;;;;;;1.58;1.23;;;;;;;9.64;100.00;98399.06;5049486;28;20411;-72
2022/11/17 04:35:57;;;;;;;1.67;0.70;;;;;;;9.63;100.00;98378.81;5049578;28;20464;-68
2022/11/17 04:38:23;;;;;;;1.13;1.05;;;;;;;9.60;100.00;98381.97;5049566;28;20033;-68
2022/11/17 04:43:32;;;;;;;1.52;0.88;;;;;;;9.62;100.00;98385.19;5048430;28;20558;-68
2022/11/17 04:46:01;;;;;;;1.15;0.98;;;;;;;9.56;100.00;98358.78;5049509;28;20033;-68
2022/11/17 04:48:27;;;;;;;2.80;1.60;;;;;;;9.58;100.00;98367.31;5049460;28;20057;-68
2022/11/17 04:50:56;;;;;;;1.83;1.00;;;;;;;9.52;100.00;98371.78;5049033;28;20071;-68
2022/11/17 04:53:22;;;;;;;3.15;1.13;;;;;;;9.49;100.00;98363.50;5048878;28;21079;-67
2022/11/17 04:55:48;;;;;;;2.05;0.77;;;;;;;9.46;100.00;98356.84;5049372;28;20095;-68
2022/11/17 04:58:14;;;;;;;2.45;1.25;;;;;;;9.43;100.00;98365.28;5049339;28;20032;-68
2022/11/17 05:00:39;;;;;;;6.45;1.65;;;;;;;9.40;100.00;98361.28;5049404;28;20029;-68
2022/11/17 05:03:05;;;;;;;1.02;0.85;;;;;;;9.41;100.00;98362.09;5049128;28;20106;-68
2022/11/17 05:05:30;;;;;;;2.22;1.50;;;;;;;9.38;100.00;98357.28;5049057;28;20098;-69
2022/11/17 05:07:56;;;;;;;1.00;0.93;;;;;;;9.37;100.00;98347.69;5049085;28;20060;-68
2022/11/17 05:13:20;;;;;;;4.55;1.20;;;;;;;9.39;100.00;98353.56;5049232;28;20100;-68
2022/11/17 05:13:26;;;;;;;2.17;1.20;;;;;;;9.36;100.00;98344.22;5049231;28;20137;-68
2022/11/17 05:18:38;;;;;;;1.17;1.08;;;;;;;9.37;100.00;98345.03;5049436;28;20116;-68
2022/11/17 05:21:05;;;;;;;1.63;0.90;;;;;;;9.41;100.00;98346.13;5049096;28;20646;-68
2022/11/17 05:26:14;;;;;;;1.65;1.00;;;;;;;9.40;100.00;98341.84;5049296;28;20036;-68
2022/11/17 05:28:40;;;;;;;4.53;1.48;;;;;;;9.43;100.00;98350.16;5049083;28;20033;-68
2022/11/17 05:31:05;;;;;;;4.68;1.80;;;;;;;9.47;100.00;98345.13;5047691;28;20029;-69
2022/11/17 05:33:30;;;;;;;4.80;1.60;;;;;;;9.53;100.00;98356.63;5049014;28;20484;-68
2022/11/17 05:35:56;;;;;;;5.05;1.55;;;;;;;9.51;100.00;98348.91;5048860;28;20021;-68
2022/11/17 05:38:21;;;;;;;2.30;1.77;;;;;;;9.57;100.00;98368.38;5050709;28;20033;-68
2022/11/17 05:40:46;;;;;;;2.47;1.30;;;;;;;9.57;100.00;98382.47;5052629;28;20037;-68
2022/11/17 05:43:12;;;;;;;6.72;2.47;;;;;;;9.59;100.00;98384.91;5052637;28;20028;-68
2022/11/17 05:45:37;;;;;;;4.07;1.42;;;;;;;9.59;100.00;98385.69;5051026;28;20044;-68
2022/11/17 05:48:02;;;;;;;4.88;1.60;;;;;;;9.59;100.00;98383.03;5052547;28;20037;-68
2022/11/17 05:50:28;;;;;;;3.33;1.40;;;;;;;9.58;100.00;98380.63;5052529;28;20061;-68
2022/11/17 05:52:53;;;;;;;5.20;1.40;;;;;;;9.59;100.00;98380.38;5052218;28;20064;-68
2022/11/17 05:55:18;;;;;;;2.55;1.27;;;;;;;9.60;100.00;98392.63;5050685;28;20032;-68
2022/11/17 05:57:45;;;;;;;4.00;1.98;;;;;;;9.59;100.00;98379.59;5051665;28;20036;-69
2022/11/17 06:00:10;;;;;;;5.90;2.20;;;;;;;9.62;100.00;98390.50;5052306;28;20037;-68
2022/11/17 06:02:45;;;;;;;6.40;1.60;;;;;;;9.62;100.00;98400.38;5052254;28;20037;-68
2022/11/17 06:05:11;;;;;;;4.00;1.90;;;;;;;9.56;100.00;98383.56;5052168;28;20059;-68
2022/11/17 06:07:38;;;;;;;4.43;1.75;;;;;;;9.63;100.00;98391.31;5052145;28;20025;-68
2022/11/17 06:10:04;;;;;;;3.65;1.45;;;;;;;9.63;100.00;98401.97;5052156;28;20051;-68
2022/11/17 06:12:29;;;;;;;3.33;2.10;;;;;;;9.64;100.00;98392.91;5052022;28;20594;-68
2022/11/17 06:14:54;;;;;;;8.05;1.90;;;;;;;9.60;100.00;98397.94;5051958;28;20029;-68
2022/11/17 06:17:31;;;;;;;3.92;2.13;;;;;;;9.64;100.00;98398.22;5051670;28;20037;-68
2022/11/17 06:20:12;;;;;;;3.28;1.17;;;;;;;9.64;100.00;98401.72;5051901;28;20472;-68
2022/11/17 06:22:38;;;;;;;11.95;1.23;;;;;;;9.66;100.00;98407.56;5051674;28;20017;-68
2022/11/17 06:25:04;;;;;;;6.85;1.83;;;;;;;9.66;100.00;98410.22;5051871;28;20464;-68
2022/11/17 06:27:31;;;;;;;6.07;1.10;;;;;;;9.66;100.00;98412.09;5050505;28;20036;-68
2022/11/17 06:30:00;;;;;;;3.22;1.70;;;;;;;9.66;100.00;98412.09;5051702;28;20179;-68
2022/11/17 06:32:27;;;;;;;5.95;2.38;;;;;;;9.64;100.00;98403.56;5051632;28;20044;-68
2022/11/17 06:34:53;;;;;;;6.35;1.70;;;;;;;9.67;100.00;98416.38;5051486;28;20425;-68
2022/11/17 06:37:19;;;;;;;7.10;1.42;;;;;;;9.64;100.00;98415.03;5051540;28;20123;-68
2022/11/17 06:39:44;;;;;;;7.28;1.63;;;;;;;9.64;100.00;98420.34;5051767;28;20108;-68
2022/11/17 06:42:09;;;;;;;5.28;1.40;;;;;;;9.63;100.00;98420.59;5050218;28;20063;-68
2022/11/17 06:44:35;;;;;;;6.07;1.88;;;;;;;9.58;100.00;98420.53;5051234;28;20079;-68
2022/11/17 06:47:01;;;;;;;1.67;1.33;;;;;;;9.58;100.00;98423.19;5051408;28;20133;-68
2022/11/17 06:49:27;;;;;;;5.13;0.90;;;;;;;9.57;100.00;98426.91;5051137;28;20569;-68
2022/11/17 06:51:52;;;;;;;4.50;1.27;;;;;;;9.53;100.00;98423.13;5051150;28;20057;-68
2022/11/17 06:54:18;;;;;;;6.65;1.38;;;;;;;9.53;100.00;98434.56;5051262;28;20025;-68
2022/11/17 06:56:43;;;;;;;6.50;1.10;;;;;;;9.51;100.00;98435.88;5051218;28;20074;-68
2022/11/17 06:59:08;;;;;;;6.78;1.15;;;;;;;9.50;100.00;98444.94;5050873;28;20507;-68
2022/11/17 07:01:35;;;;;;;6.72;1.30;;;;;;;9.47;100.00;98448.88;5050952;28;20033;-68
2022/11/17 07:04:00;;;;;;;7.65;1.30;;;;;;;9.49;100.00;98446.00;5050940;28;20101;-68
2022/11/17 07:06:26;;;;;;;7.20;1.58;;;;;;;9.52;100.00;98453.47;5051014;28;20571;-68
2022/11/17 07:08:51;;;;;;;6.93;1.73;;;;;;;9.50;100.00;98464.34;5051110;28;20398;-69
2022/11/17 07:11:16;;;;;;;3.85;1.00;;;;;;;9.49;100.00;98459.28;5050932;28;20392;-68
2022/11/17 07:13:42;;;;;;;9.82;1.73;;;;;;;9.48;100.00;98463.78;5050988;28;20112;-68
2022/11/17 07:16:13;;;;;;;6.53;2.28;;;;;;;9.46;100.00;98473.91;5049248;28;20385;-68
2022/11/17 07:18:43;;;;;;;4.38;1.00;;;;;;;9.44;100.00;98465.34;5050733;28;20029;-68
2022/11/17 07:21:12;;;;;;;0.75;0.75;;;;;;;9.42;100.00;98468.25;5050784;28;20029;-69
2022/11/17 07:23:38;;;;;;;3.92;1.13;;;;;;;9.39;100.00;98468.75;5050401;28;20027;-68
2022/11/17 07:26:04;;;;;;;5.70;1.38;;;;;;;9.35;100.00;98464.16;5050420;28;20511;-68
2022/11/17 07:28:32;;;;;;;5.60;2.17;;;;;;;9.34;100.00;98468.69;5050552;28;20090;-69
2022/11/17 07:31:01;;;;;;;4.40;1.23;;;;;;;9.32;100.00;98481.41;5050521;28;20031;-69
2022/11/17 07:33:26;;;;;;;1.60;0.95;;;;;;;9.27;100.00;98469.91;5050230;28;20029;-68
2022/11/17 07:35:52;;;;;;;6.35;1.10;;;;;;;9.28;100.00;98475.00;5050262;28;20058;-69
2022/11/17 07:38:17;;;;;;;2.63;1.35;;;;;;;9.26;100.00;98476.31;5049991;28;20068;-69
2022/11/17 07:40:43;;;;;;;5.43;1.75;;;;;;;9.23;100.00;98484.78;5050121;28;20044;-69
2022/11/17 07:43:08;;;;;;;3.78;1.02;;;;;;;9.17;100.00;98489.22;5050243;28;20387;-69
2022/11/17 07:45:34;;;;;;;3.58;0.77;;;;;;;9.17;100.00;98489.22;5048743;28;20037;-69
2022/11/17 07:48:03;;;;;;;3.38;1.40;;;;;;;9.13;100.00;98502.19;5050109;28;20107;-70
2022/11/17 07:50:29;;;;;;;2.92;0.90;;;;;;;9.07;100.00;98492.53;5049870;28;20029;-68
2022/11/17 07:52:55;;;;;;;1.63;0.88;;;;;;;9.10;100.00;98505.34;5049952;28;20401;-68
2022/11/17 07:55:22;;;;;;;4.32;0.93;;;;;;;9.09;100.00;98509.06;5050037;28;20102;-68
2022/11/17 07:57:54;;;;;;;1.27;0.85;;;;;;;9.03;100.00;98502.03;5050066;28;20127;-67
2022/11/17 08:00:19;;;;;;;3.13;0.90;;;;;;;9.06;100.00;98503.41;5049269;28;20033;-68
2022/11/17 08:02:44;;;;;;;4.65;0.60;;;;;;;9.06;100.00;98514.84;5048686;28;20035;-69
2022/11/17 08:05:10;;;;;;;3.15;0.93;;;;;;;9.00;100.00;98511.31;5049186;28;20538;-68
2022/11/17 08:07:35;;;;;;;3.45;0.90;;;;;;;9.02;100.00;98515.59;5049790;28;20043;-69
2022/11/17 08:10:00;;;;;;;1.50;0.98;;;;;;;9.03;100.00;98520.66;5049885;28;20029;-69
2022/11/17 08:12:26;;;;;;;3.40;0.90;;;;;;;9.07;100.00;98524.44;5049971;28;20395;-66
2022/11/17 08:14:51;;;;;;;4.95;1.13;;;;;;;9.11;100.00;98522.09;5049781;28;20480;-67
2022/11/17 08:17:16;;;;;;;2.63;0.88;;;;;;;9.14;100.00;98530.41;5049783;28;20025;-69
2022/11/17 08:19:42;;;;;;;2.05;1.20;;;;;;;9.15;100.00;98529.34;5049674;28;20029;-72
2022/11/17 08:22:07;;;;;;;1.67;0.85;;;;;;;9.19;100.00;98533.09;5049590;28;20506;-71
2022/11/17 08:24:32;;;;;;;3.00;0.90;;;;;;;9.21;100.00;98535.53;5049458;28;20057;-72
2022/11/17 08:26:58;;;;;;;2.35;0.70;;;;;;;9.20;100.00;98542.72;5049374;28;20068;-72
2022/11/17 08:29:23;;;;;;;1.05;0.60;;;;;;;9.20;100.00;98542.72;5048039;28;20063;-72
2022/11/17 08:31:49;;;;;;;5.85;1.02;;;;;;;9.21;100.00;98548.84;5047470;28;20035;-71
2022/11/17 08:34:14;;;;;;;2.50;1.48;;;;;;;9.20;100.00;98555.22;5042868;28;20056;-70
2022/11/17 08:36:39;;;;;;;1.85;0.93;;;;;;;9.16;100.00;98552.22;5043710;28;20033;-70
2022/11/17 08:39:05;;;;;;;3.20;1.10;;;;;;;9.18;100.00;98552.78;5043357;28;20116;-74
2022/11/17 08:41:31;;;;;;;0.70;0.70;;;;;;;9.16;100.00;98549.56;5043373;28;20203;-73
2022/11/17 08:43:56;;;;;;;0.57;0.50;;;;;;;9.17;100.00;98555.72;5042946;28;20084;-71
2022/11/17 08:46:22;;;;;;;2.75;1.13;;;;;;;9.17;100.00;98559.16;5043190;28;20510;-70
2022/11/17 08:48:47;;;;;;;2.15;1.00;;;;;;;9.16;100.00;98560.19;5043157;28;20027;-71
2022/11/17 08:51:13;;;;;;;1.52;0.60;;;;;;;9.13;100.00;98558.03;5043361;28;20043;-71
2022/11/17 08:53:39;;;;;;;1.52;0.80;;;;;;;9.15;100.00;98566.56;5042896;28;20519;-70
2022/11/17 08:56:09;;;;;;;2.80;1.35;;;;;;;9.12;100.00;98568.94;5043552;28;20033;-70
2022/11/17 08:58:43;;;;;;;2.53;0.85;;;;;;;9.12;100.00;98571.59;5041279;28;20036;-72
2022/11/17 09:01:16;;;;;;;3.88;1.00;;;;;;;9.07;100.00;98568.84;5043331;28;20029;-73
2022/11/17 09:03:44;;;;;;;2.63;0.80;;;;;;;9.06;100.00;98572.53;5042807;28;20504;-71
2022/11/17 09:06:10;;;;;;;1.75;0.55;;;;;;;9.04;100.00;98564.00;5043049;28;20021;-71
2022/11/17 09:08:35;;;;;;;2.83;0.93;;;;;;;8.99;100.00;98570.88;5043556;28;20040;-72
2022/11/17 09:11:09;;;;;;;0.77;0.70;;;;;;;9.02;100.00;98568.78;5043177;28;20033;-73
2022/11/17 09:13:36;;;;;;;7.30;1.33;;;;;;;8.99;100.00;98570.88;5046523;28;21452;-71
2022/11/17 09:16:06;;;;;;;3.17;1.30;;;;;;;8.98;100.00;98574.56;5047325;28;20033;-71
2022/11/17 09:18:32;;;;;;;1.75;0.80;;;;;;;8.98;100.00;98584.38;5047593;28;20512;-72
2022/11/17 09:21:01;;;;;;;2.25;0.70;;;;;;;9.00;100.00;98575.13;5046924;28;20407;-72
2022/11/17 09:23:28;;;;;;;5.05;1.40;;;;;;;9.03;100.00;98587.13;5045995;28;20028;-71
2022/11/17 09:25:54;;;;;;;4.40;0.82;;;;;;;9.09;100.00;98588.00;5046744;28;20082;-71
2022/11/17 09:28:19;;;;;;;3.83;1.23;;;;;;;9.12;100.00;98593.66;5046867;28;20037;-73
2022/11/17 09:30:45;;;;;;;2.65;1.10;;;;;;;9.12;100.00;98585.69;5047141;28;20033;-71
2022/11/17 09:33:10;;;;;;;2.92;0.90;;;;;;;9.15;100.00;98603.81;5046647;28;20032;-72
2022/11/17 09:35:35;;;;;;;3.30;1.35;;;;;;;9.18;100.00;98594.53;5046484;28;20120;-72
2022/11/17 09:38:01;;;;;;;3.72;0.90;;;;;;;9.18;100.00;98610.50;5046569;28;20056;-72
2022/11/17 09:40:27;;;;;;;1.90;0.80;;;;;;;9.17;100.00;98608.91;5046317;28;20456;-72
2022/11/17 09:42:53;;;;;;;2.15;0.70;;;;;;;9.22;100.00;98614.25;5046079;28;20040;-72
2022/11/17 09:45:23;;;;;;;7.00;1.52;;;;;;;9.23;100.00;98615.91;5046302;28;20420;-72
2022/11/17 09:47:57;;;;;;;1.17;1.05;;;;;;;9.27;100.00;98621.53;5046367;28;20032;-72
2022/11/17 09:50:32;;;;;;;1.95;1.15;;;;;;;9.30;100.00;98627.19;5046499;28;20032;-72
2022/11/17 09:53:15;;;;;;;6.03;1.25;;;;;;;9.41;100.00;98634.25;5045926;28;20110;-72
2022/11/17 09:55:54;;;;;;;3.90;1.00;;;;;;;9.49;100.00;98621.59;5046477;28;20027;-69
2022/11/17 09:58:38;;;;;;;2.65;1.15;;;;;;;9.65;100.00;98621.56;5046314;28;20206;-69
2022/11/17 10:01:05;;;;;;;3.35;1.02;;;;;;;9.73;100.00;98632.84;5046175;28;20025;-69
2022/11/17 10:03:32;;;;;;;8.05;1.35;;;;;;;9.84;100.00;98631.91;5046026;28;20033;-69
2022/11/17 10:06:02;;;;;;;2.80;1.17;;;;;;;9.99;100.00;98644.63;5046216;28;20529;-71
2022/11/17 10:08:44;;;;;;;4.97;2.10;;;;;;;10.10;100.00;98643.69;5046083;28;20036;-72
2022/11/17 10:11:31;;;;;;;1.55;0.80;;;;;;;10.18;100.00;98637.13;5046372;28;20483;-71
2022/11/17 10:14:18;;;;;;;0.93;0.85;;;;;;;10.25;100.00;98651.88;5047707;28;20025;-69
2022/11/17 10:16:51;;;;;;;3.88;1.70;;;;;;;10.30;100.00;98651.16;5033832;28;20437;-70
2022/11/17 10:19:29;;;;;;;2.25;1.08;;;;;;;10.31;100.00;98652.75;5051934;28;20107;-70
2022/11/17 10:22:12;;;;;;;4.30;0.90;;;;;;;10.31;100.00;98650.09;5051786;28;20388;-69
2022/11/17 10:24:40;;;;;;;2.42;0.90;;;;;;;10.31;100.00;98658.88;5051534;28;20052;-69
2022/11/17 10:27:30;;;;;;;2.03;0.68;;;;;;;10.42;100.00;98653.69;5051651;28;20417;-67
2022/11/17 10:30:06;;;;;;;5.10;1.33;;;;;;;10.47;100.00;98654.53;5051680;28;20027;-67
2022/11/17 10:32:35;;;;;;;4.97;0.95;;;;;;;10.57;100.00;98658.38;5051727;28;20515;-67
2022/11/17 10:35:21;;;;;;;2.13;1.00;;;;;;;10.64;100.00;98670.47;5051704;28;20076;-67
2022/11/17 10:38:00;;;;;;;3.10;0.68;;;;;;;10.64;100.00;98659.78;5051534;28;20040;-68
2022/11/17 10:40:30;;;;;;;3.00;1.30;;;;;;;10.70;100.00;98669.44;5051588;28;20033;-67
2022/11/17 10:42:57;;;;;;;3.22;0.70;;;;;;;10.70;100.00;98661.44;5051441;28;20021;-67
2022/11/17 10:45:23;;;;;;;1.48;0.70;;;;;;;10.77;100.00;98671.09;5051202;28;20229;-68
2022/11/17 10:47:49;;;;;;;5.07;2.55;;;;;;;10.83;100.00;98673.56;5051436;28;20340;-68
2022/11/17 10:50:21;;;;;;;3.50;1.30;;;;;;;10.87;100.00;98671.19;5051247;28;20036;-68
2022/11/17 10:52:49;;;;;;;4.05;0.90;;;;;;;10.91;100.00;98680.31;5050844;28;20052;-68
2022/11/17 10:55:19;;;;;;;2.85;0.93;;;;;;;10.96;100.00;98678.50;5051263;28;20107;-68
2022/11/17 10:57:49;;;;;;;2.65;0.70;;;;;;;10.98;100.00;98675.59;5051246;28;20082;-68
2022/11/17 11:00:40;;;;;;;1.90;0.75;;;;;;;10.99;100.00;98684.38;5051300;28;20020;-67
2022/11/17 11:03:16;;;;;;;3.10;0.90;;;;;;;10.96;100.00;98686.50;5049931;28;20037;-67
2022/11/17 11:06:05;;;;;;;3.40;1.00;;;;;;;10.90;100.00;98681.38;5050988;28;20038;-68
2022/11/17 11:08:54;;;;;;;5.35;1.83;;;;;;;10.87;100.00;98695.19;5045520;28;20063;-67
2022/11/17 11:11:42;;;;;;;6.78;1.63;;;;;;;10.79;100.00;98679.66;5044650;28;20029;-69
2022/11/17 11:14:35;;;;;;;2.33;0.80;;;;;;;10.76;100.00;98704.97;5044952;28;20025;-69
2022/11/17 11:17:10;;;;;;;2.65;1.00;;;;;;;10.68;100.00;98682.22;5044955;28;20063;-69
2022/11/17 11:19:35;;;;;;;4.25;1.00;;;;;;;10.70;100.00;98703.31;5044784;28;20107;-69
2022/11/17 11:22:07;;;;;;;1.33;0.77;;;;;;;10.71;100.00;98705.69;5043351;28;20112;-68
2022/11/17 11:24:35;;;;;;;;;;;;;;;10.78;100.00;98712.72;5044669;28;20025;-67
2022/11/17 11:27:25;;;;;;;1.00;0.70;;;;;;;10.71;100.00;98711.03;5044886;28;20351;-67
2022/11/17 11:30:23;;;;;;;5.53;1.00;;;;;;;10.70;100.00;98713.97;5044579;28;20170;-67
2022/11/17 11:33:24;;;;;;;3.67;1.45;;;;;;;10.73;100.00;98724.94;5043680;28;20028;-67
2022/11/17 11:36:10;;;;;;;1.67;0.77;;;;;;;10.69;100.00;98717.69;5043294;28;20025;-67
2022/11/17 11:38:50;;;;;;;1.55;0.95;;;;;;;10.74;100.00;98713.22;5044265;28;20115;-67
2022/11/17 11:41:34;;;;;;;2.80;0.80;;;;;;;10.75;100.00;98714.81;5044654;28;21255;-67
2022/11/17 11:44:25;;;;;;;5.78;1.67;;;;;;;10.73;100.00;98722.25;5044592;28;20031;-67
2022/11/17 11:47:25;;;;;;;3.00;1.10;;;;;;;10.73;100.00;98718.78;5044338;28;20143;-67
2022/11/17 11:50:02;;;;;;;4.15;1.95;;;;;;;10.70;100.00;98727.28;5043742;28;20055;-67
2022/11/17 11:52:34;;;;;;;2.08;0.85;;;;;;;10.70;100.00;98733.44;5043871;28;20053;-67
2022/11/17 11:55:02;;;;;;;;;;;;;;;10.75;100.00;98733.50;5044811;28;20460;-67
2022/11/17 11:57:45;;;;;;;1.20;1.10;;;;;;;10.73;100.00;98735.59;5043874;28;19919;-67
2022/11/17 12:00:16;;;;;;;5.47;1.00;;;;;;;10.75;100.00;98736.16;5044077;28;20051;-68
2022/11/17 12:03:26;;;;;;;2.92;1.30;;;;;;;10.75;100.00;98730.03;5043227;28;20033;-68
2022/11/17 12:09:23;;;;;;;1.42;1.33;;;;;;;10.78;100.00;98740.19;5043998;28;20147;-68
2022/11/17 12:12:00;;;;;;;1.00;0.93;;;;;;;10.80;100.00;98742.63;5043580;28;20107;-67
2022/11/17 12:14:28;;;;;;;5.60;1.48;;;;;;;10.70;100.00;98751.28;5043881;28;20142;-67
2022/11/17 12:17:06;;;;;;;1.38;0.88;;;;;;;10.74;100.00;98753.22;5044174;28;20361;-68
2022/11/17 12:20:02;;;;;;;3.38;1.70;;;;;;;10.80;100.00;98743.41;5043268;28;20502;-68